Time;durP1;ratioP1;P1;durP2;ratioP2;P2;SDS_P1;SDS_P2;PMS_P1;PMS_P2;Temp;Humidity;BMP_temperature;BMP_pressure;BME280_temperature;BME280_humidity;BME280_pressure;Samples;Min_cycle;Max_cycle;Signal;HPM_P1;HPM_P2
2022/05/15 00:01:28;;;;;;;13.70;5.23;;;;;;;39.14;40.38;101067.81;4994082;28;20885;-71
2022/05/15 00:03:55;;;;;;;21.43;7.60;;;;;;;39.13;40.38;101079.78;4993879;28;20434;-72
2022/05/15 00:06:21;;;;;;;15.20;5.07;;;;;;;39.17;40.35;101067.25;4994040;28;20485;-73
2022/05/15 00:08:47;;;;;;;8.67;4.63;;;;;;;39.19;40.40;101064.22;5008695;28;20445;-72
2022/05/15 00:11:18;;;;;;;10.73;5.10;;;;;;;39.19;40.34;101056.09;4992460;28;20433;-71
2022/05/15 00:13:47;;;;;;;13.70;4.53;;;;;;;39.19;40.61;101054.16;4993735;28;20433;-71
2022/05/15 00:16:13;;;;;;;13.27;5.03;;;;;;;39.30;40.60;101054.72;4992503;28;20421;-71
2022/05/15 00:18:39;;;;;;;15.97;6.63;;;;;;;39.12;40.79;101052.97;4993798;28;20496;-71
2022/05/15 00:21:07;;;;;;;11.50;5.83;;;;;;;39.18;40.41;101052.56;5008544;28;20449;-71
2022/05/15 00:23:33;;;;;;;10.30;4.70;;;;;;;39.16;40.67;101049.34;4993664;28;20463;-71
2022/05/15 00:25:59;;;;;;;8.70;4.27;;;;;;;39.05;41.02;101047.19;5008620;28;20464;-72
2022/05/15 00:28:26;;;;;;;12.30;4.57;;;;;;;39.03;41.23;101049.41;5008336;28;20953;-72
2022/05/15 00:30:52;;;;;;;16.50;5.57;;;;;;;39.12;41.25;101045.66;4992193;28;20425;-71
2022/05/15 00:33:19;;;;;;;21.47;5.73;;;;;;;39.26;40.61;101039.34;4992080;28;20863;-71
2022/05/15 00:35:45;;;;;;;18.23;4.80;;;;;;;39.23;40.83;101033.44;4993272;28;20448;-72
2022/05/15 00:38:12;;;;;;;31.97;6.30;;;;;;;39.07;41.00;101034.91;5008397;28;20417;-71
2022/05/15 00:40:41;;;;;;;8.80;4.60;;;;;;;39.13;41.06;101032.88;4993132;28;20527;-72
2022/05/15 00:43:13;;;;;;;11.20;4.40;;;;;;;39.22;40.60;101031.81;4991805;28;20457;-72
2022/05/15 00:45:40;;;;;;;12.57;5.53;;;;;;;39.13;40.87;101032.88;5008077;28;20500;-71
2022/05/15 00:48:06;;;;;;;11.70;4.63;;;;;;;39.30;40.56;101026.78;4991832;28;20432;-71
2022/05/15 00:50:37;;;;;;;12.03;4.63;;;;;;;39.00;41.01;101031.84;4993061;28;20894;-72
2022/05/15 00:53:08;;;;;;;13.07;4.87;;;;;;;38.84;41.48;101025.19;4991829;28;20440;-71
2022/05/15 00:55:40;;;;;;;12.37;5.20;;;;;;;38.87;41.14;101024.59;4992940;28;20437;-72
2022/05/15 00:58:15;;;;;;;15.37;6.30;;;;;;;38.93;41.05;101028.78;4991727;28;20448;-71
2022/05/15 01:00:42;;;;;;;11.00;4.90;;;;;;;38.95;40.82;101029.25;4991641;28;20425;-72
2022/05/15 01:03:14;;;;;;;14.73;5.00;;;;;;;38.67;41.57;101023.09;5007785;28;20472;-73
2022/05/15 01:05:50;;;;;;;23.03;4.53;;;;;;;38.85;41.39;101021.34;5008002;28;20425;-72
2022/05/15 01:08:17;;;;;;;11.30;4.63;;;;;;;39.13;40.69;101016.59;4992863;28;20404;-71
2022/05/15 01:10:46;;;;;;;14.80;6.73;;;;;;;39.18;40.65;101025.44;4992582;28;20489;-71
2022/05/15 01:13:14;;;;;;;10.00;4.90;;;;;;;39.04;40.83;101030.13;4992761;28;20402;-72
2022/05/15 01:15:41;;;;;;;18.33;5.73;;;;;;;39.11;41.01;101026.97;4992700;28;20437;-72
2022/05/15 01:18:09;;;;;;;15.20;6.27;;;;;;;38.97;40.87;101027.03;4991384;28;20440;-71
2022/05/15 01:20:36;;;;;;;9.83;6.70;;;;;;;39.08;40.64;101024.84;4991221;28;20452;-71
2022/05/15 01:23:03;;;;;;;15.07;4.50;;;;;;;39.14;40.51;101019.00;4991321;28;20547;-73
2022/05/15 01:25:33;;;;;;;17.00;5.43;;;;;;;39.07;40.59;101023.25;4991363;28;20426;-71
2022/05/15 01:28:21;;;;;;;12.00;5.33;;;;;;;39.17;40.29;101021.13;5007509;28;20425;-72
2022/05/15 01:30:52;;;;;;;11.33;5.47;;;;;;;39.07;40.49;101012.41;4991278;28;20428;-71
2022/05/15 01:33:19;;;;;;;13.93;5.10;;;;;;;39.10;40.35;101017.19;5007598;28;20782;-72
2022/05/15 01:35:45;;;;;;;14.53;4.73;;;;;;;39.20;40.44;101014.25;5007414;28;20808;-71
2022/05/15 01:38:11;;;;;;;16.40;8.83;;;;;;;39.13;40.98;101017.41;4991244;28;20874;-71
2022/05/15 01:40:39;;;;;;;17.10;10.30;;;;;;;39.07;41.36;101017.84;4992593;28;20440;-71
2022/05/15 01:43:06;;;;;;;18.57;12.07;;;;;;;38.69;42.49;101007.34;4992481;28;20583;-72
2022/05/15 01:45:33;;;;;;;16.70;11.93;;;;;;;38.65;42.49;101012.56;4991100;28;20434;-73
2022/05/15 01:47:59;;;;;;;22.07;12.20;;;;;;;38.42;43.15;101013.66;5007309;28;20444;-71
2022/05/15 01:50:25;;;;;;;25.47;15.63;;;;;;;38.42;43.01;101014.47;4990633;28;20453;-71
2022/05/15 01:52:51;;;;;;;16.93;13.27;;;;;;;38.41;42.94;101006.63;5007378;28;20445;-71
2022/05/15 01:55:17;;;;;;;26.83;15.00;;;;;;;38.30;43.53;101000.66;5007229;28;20414;-73
2022/05/15 01:57:44;;;;;;;17.63;15.30;;;;;;;38.40;43.45;101000.41;4990977;28;20924;-72
2022/05/15 02:00:14;;;;;;;24.50;17.60;;;;;;;38.24;43.82;100995.63;5007486;28;20421;-71
2022/05/15 02:02:40;;;;;;;20.10;15.40;;;;;;;38.33;43.83;100994.63;5007350;28;20468;-71
2022/05/15 02:05:08;;;;;;;25.03;17.73;;;;;;;38.37;43.64;100992.13;4992208;28;20416;-72
2022/05/15 02:07:35;;;;;;;22.40;16.70;;;;;;;38.42;43.48;100987.34;4992336;28;20401;-72
2022/05/15 02:10:01;;;;;;;24.97;16.87;;;;;;;38.38;43.46;100985.59;4990559;28;20484;-71
2022/05/15 02:12:27;;;;;;;29.53;20.20;;;;;;;38.40;43.83;100989.59;5007279;28;20876;-71
2022/05/15 02:14:53;;;;;;;37.27;19.73;;;;;;;38.37;43.90;100989.41;5008305;28;20429;-72
2022/05/15 02:17:19;;;;;;;27.60;22.80;;;;;;;38.41;43.56;100995.81;5010929;28;20421;-72
2022/05/15 02:19:45;;;;;;;29.20;21.37;;;;;;;38.33;43.83;100985.69;5010899;28;20421;-72
2022/05/15 02:22:14;;;;;;;25.40;19.33;;;;;;;38.38;43.79;100988.28;5011041;28;20475;-72
2022/05/15 02:24:40;;;;;;;24.10;18.70;;;;;;;38.56;43.26;100984.63;4995928;28;20462;-72
2022/05/15 02:27:06;;;;;;;27.00;20.10;;;;;;;38.54;43.18;100989.53;5010835;28;20449;-72
2022/05/15 02:29:33;;;;;;;26.40;17.50;;;;;;;38.26;43.89;100988.84;4994490;28;20432;-72
2022/05/15 02:31:59;;;;;;;29.53;18.10;;;;;;;38.35;43.88;100986.97;4995702;28;20440;-72
2022/05/15 02:34:26;;;;;;;29.77;22.33;;;;;;;38.50;43.33;100987.75;5010626;28;20802;-72
2022/05/15 02:36:52;;;;;;;27.27;19.13;;;;;;;38.44;43.40;100978.94;4978128;28;20820;-72
2022/05/15 02:39:18;;;;;;;27.03;20.17;;;;;;;38.44;43.19;100979.75;4995633;28;20922;-72
2022/05/15 02:41:44;;;;;;;28.37;19.83;;;;;;;38.21;43.99;100982.69;5010369;28;20943;-72
2022/05/15 02:44:10;;;;;;;27.47;21.80;;;;;;;37.98;44.35;100982.63;5010699;28;21036;-72
2022/05/15 02:46:36;;;;;;;34.20;22.00;;;;;;;38.11;43.93;100981.00;5010416;28;20452;-72
2022/05/15 02:51:47;;;;;;;34.47;22.90;;;;;;;38.08;44.35;100992.47;4995324;28;20389;-72
2022/05/15 02:54:13;;;;;;;28.87;22.97;;;;;;;38.29;43.88;100992.81;5010426;28;20517;-72
2022/05/15 02:56:39;;;;;;;28.53;22.70;;;;;;;38.42;43.83;100998.19;5010536;28;20432;-72
2022/05/15 02:59:05;;;;;;;35.40;25.47;;;;;;;38.46;43.46;100997.59;5010383;28;20488;-71
2022/05/15 03:01:31;;;;;;;33.13;24.47;;;;;;;38.58;43.24;100997.84;4993944;28;20825;-71
2022/05/15 03:03:57;;;;;;;39.00;26.83;;;;;;;38.70;42.85;101000.81;4994974;28;20792;-71
2022/05/15 03:06:23;;;;;;;29.60;24.23;;;;;;;38.67;42.95;101004.97;5010135;28;20839;-71
2022/05/15 03:08:52;;;;;;;26.20;22.27;;;;;;;38.70;42.97;101006.25;5009774;28;20965;-72
2022/05/15 03:11:18;;;;;;;34.77;25.43;;;;;;;38.65;42.95;101001.72;4993710;28;20445;-71
2022/05/15 03:13:45;;;;;;;23.70;20.83;;;;;;;38.65;43.50;101009.88;4995036;28;20609;-71
2022/05/15 03:16:13;;;;;;;43.93;27.90;;;;;;;38.74;42.84;101003.75;4993578;28;20457;-71
2022/05/15 03:18:45;;;;;;;35.73;27.63;;;;;;;38.72;42.99;100995.13;4993597;28;20429;-71
2022/05/15 03:21:28;;;;;;;32.57;24.43;;;;;;;38.66;43.20;100997.91;4992110;28;20426;-72
2022/05/15 03:24:14;;;;;;;30.13;21.93;;;;;;;38.68;43.03;100995.72;4977773;28;20461;-72
2022/05/15 03:26:43;;;;;;;26.43;22.03;;;;;;;38.65;42.91;100984.66;4990863;28;20457;-72
2022/05/15 03:29:11;;;;;;;35.20;20.30;;;;;;;38.70;42.77;100989.97;4991499;28;20429;-71
2022/05/15 03:31:39;;;;;;;26.03;20.13;;;;;;;38.63;42.88;100982.28;4991433;28;20429;-71
2022/05/15 03:34:08;;;;;;;27.20;18.40;;;;;;;38.35;43.23;100986.19;5007806;28;20472;-71
2022/05/15 03:36:34;;;;;;;33.53;17.50;;;;;;;38.41;43.29;100977.63;4991346;28;20429;-72
2022/05/15 03:39:00;;;;;;;21.53;16.70;;;;;;;38.29;43.60;100973.88;4991449;28;20459;-72
2022/05/15 03:41:27;;;;;;;20.47;17.57;;;;;;;38.27;43.50;100974.19;5007717;28;20428;-72
2022/05/15 03:43:54;;;;;;;24.67;18.80;;;;;;;38.00;44.11;100979.63;5007470;28;20477;-72
2022/05/15 03:46:20;;;;;;;23.00;16.27;;;;;;;38.08;43.82;100977.00;5007778;28;20425;-72
2022/05/15 03:48:46;;;;;;;27.63;17.37;;;;;;;38.13;43.77;100968.78;4992048;28;20421;-72
2022/05/15 03:51:13;;;;;;;22.03;15.43;;;;;;;38.07;43.95;100970.00;4992955;28;20425;-73
2022/05/15 03:53:39;;;;;;;20.30;15.10;;;;;;;38.13;43.56;100968.78;4992923;28;20451;-72
2022/05/15 03:56:05;;;;;;;23.13;17.30;;;;;;;37.88;44.36;100963.91;4976766;28;20456;-71
2022/05/15 03:58:35;;;;;;;20.67;15.90;;;;;;;37.66;44.74;100959.19;4992975;28;20808;-71
2022/05/15 04:01:01;;;;;;;29.17;15.73;;;;;;;37.78;44.96;100956.75;4994032;28;20413;-72
2022/05/15 04:03:27;;;;;;;27.53;16.67;;;;;;;37.80;44.64;100961.88;5008975;28;20492;-72
2022/05/15 04:05:53;;;;;;;20.20;15.90;;;;;;;37.37;45.60;100946.75;4976654;28;20422;-72
2022/05/15 04:08:19;;;;;;;22.33;14.40;;;;;;;37.42;45.70;100947.75;4992509;28;20557;-71
2022/05/15 04:10:46;;;;;;;20.30;18.83;;;;;;;37.45;45.59;100944.47;4992391;28;20465;-71
2022/05/15 04:13:12;;;;;;;27.63;17.47;;;;;;;37.43;45.59;100952.06;4992668;28;20484;-72
2022/05/15 04:15:38;;;;;;;27.23;16.67;;;;;;;37.37;45.70;100948.66;4993857;28;20471;-72
2022/05/15 04:18:06;;;;;;;23.30;17.40;;;;;;;37.06;46.15;100960.00;5008666;28;20444;-71
2022/05/15 04:20:32;;;;;;;29.70;15.87;;;;;;;37.27;46.34;100956.94;4976344;28;20421;-71
2022/05/15 04:22:58;;;;;;;27.50;16.57;;;;;;;37.10;46.23;100947.50;4992300;28;20539;-71
2022/05/15 04:25:25;;;;;;;33.30;17.90;;;;;;;37.44;45.76;100951.75;5008486;28;20524;-71
2022/05/15 04:27:51;;;;;;;33.47;18.00;;;;;;;37.60;45.16;100950.34;4992616;28;20429;-71
2022/05/15 04:30:20;;;;;;;27.37;19.80;;;;;;;37.63;45.09;100957.91;5008382;28;20575;-71
2022/05/15 04:32:46;;;;;;;21.23;13.87;;;;;;;37.60;45.28;100961.19;5008452;28;20425;-71
2022/05/15 04:35:12;;;;;;;25.03;15.50;;;;;;;37.63;45.42;100960.59;4991908;28;20433;-71
2022/05/15 04:37:39;;;;;;;24.83;13.83;;;;;;;37.52;45.50;100966.50;4991360;28;20433;-72
2022/05/15 04:40:07;;;;;;;27.03;14.80;;;;;;;37.46;45.06;100973.13;4992094;28;20490;-71
2022/05/15 04:42:33;;;;;;;21.87;14.97;;;;;;;37.57;45.06;100978.03;5008281;28;20540;-71
2022/05/15 04:44:59;;;;;;;24.10;15.30;;;;;;;37.72;44.99;100973.41;5008263;28;20433;-71
2022/05/15 04:47:25;;;;;;;30.70;16.83;;;;;;;37.81;44.75;100980.56;5008253;28;20429;-72
2022/05/15 04:49:52;;;;;;;29.47;16.40;;;;;;;38.01;44.65;100978.53;5008165;28;20456;-72
2022/05/15 04:52:18;;;;;;;22.80;14.87;;;;;;;37.90;44.60;100980.66;5008162;28;20931;-72
2022/05/15 04:54:44;;;;;;;22.10;15.33;;;;;;;37.94;44.38;100978.94;4991862;28;20417;-71
2022/05/15 04:57:10;;;;;;;22.67;15.40;;;;;;;37.96;44.22;100984.84;5007951;28;20432;-71
2022/05/15 04:59:36;;;;;;;23.83;15.57;;;;;;;38.00;44.22;100985.03;5007867;28;20536;-72
2022/05/15 05:02:03;;;;;;;26.20;16.20;;;;;;;37.96;44.23;100992.19;5007900;28;20953;-72
2022/05/15 05:04:29;;;;;;;24.30;16.10;;;;;;;38.04;44.60;100997.66;5008122;28;20417;-73
2022/05/15 05:06:55;;;;;;;25.40;15.97;;;;;;;38.19;43.99;100988.44;4991401;28;20476;-71
2022/05/15 05:09:22;;;;;;;27.07;17.27;;;;;;;38.16;44.20;101000.66;5007618;28;20480;-71
2022/05/15 05:11:48;;;;;;;26.13;16.93;;;;;;;38.26;44.02;100993.41;5007971;28;20809;-71
2022/05/15 05:14:14;;;;;;;21.30;13.90;;;;;;;38.23;43.89;100994.03;5007607;28;20981;-71
2022/05/15 05:16:40;;;;;;;20.40;15.30;;;;;;;38.28;44.06;100996.66;4992787;28;20895;-72
2022/05/15 05:19:06;;;;;;;19.73;14.70;;;;;;;38.35;43.59;101007.88;5007852;28;20948;-71
2022/05/15 05:21:33;;;;;;;20.67;14.93;;;;;;;38.28;44.00;101011.00;4992607;28;20448;-73
2022/05/15 05:24:00;;;;;;;26.20;16.47;;;;;;;38.26;43.69;101015.94;5007725;28;20552;-72
2022/05/15 05:26:26;;;;;;;30.10;16.40;;;;;;;38.21;44.00;101012.50;5007521;28;20496;-72
2022/05/15 05:28:52;;;;;;;31.90;15.63;;;;;;;38.26;43.92;101015.09;5007740;28;20433;-72
2022/05/15 05:31:18;;;;;;;25.73;16.77;;;;;;;38.20;43.95;101017.13;4992451;28;20584;-71
2022/05/15 05:33:44;;;;;;;23.07;16.70;;;;;;;38.05;44.47;101014.72;4992569;28;20917;-71
2022/05/15 05:36:11;;;;;;;27.83;17.30;;;;;;;38.13;43.98;101017.53;4991161;28;20476;-72
2022/05/15 05:38:37;;;;;;;28.87;18.43;;;;;;;38.05;44.20;101015.50;5007481;28;20417;-71
2022/05/15 05:41:03;;;;;;;29.53;16.07;;;;;;;37.99;44.08;101014.03;4975203;28;20511;-71
2022/05/15 05:43:29;;;;;;;28.00;16.47;;;;;;;37.96;44.06;101020.06;4990963;28;20845;-71
2022/05/15 05:45:55;;;;;;;27.50;18.13;;;;;;;37.97;43.77;101015.44;5007380;28;20938;-71
2022/05/15 05:48:21;;;;;;;30.17;18.40;;;;;;;37.79;44.75;101017.91;5007627;28;20437;-71
2022/05/15 05:50:47;;;;;;;33.40;19.17;;;;;;;37.70;44.70;101029.78;5011313;28;20449;-72
2022/05/15 05:53:13;;;;;;;27.73;18.47;;;;;;;37.62;44.81;101026.63;4996459;28;20408;-72
2022/05/15 05:55:39;;;;;;;28.73;17.23;;;;;;;37.71;44.62;101034.09;5011356;28;20468;-71
2022/05/15 05:58:05;;;;;;;27.40;18.40;;;;;;;37.72;44.59;101032.97;5011306;28;20436;-71
2022/05/15 06:00:37;;;;;;;22.80;17.37;;;;;;;37.80;44.32;101038.50;5010406;28;20448;-71
2022/05/15 06:05:50;;;;;;;27.07;19.00;;;;;;;37.78;44.90;101056.13;4996006;28;20424;-71
2022/05/15 06:08:17;;;;;;;31.93;19.87;;;;;;;37.90;44.39;101065.41;5010608;28;20425;-72
2022/05/15 06:10:44;;;;;;;23.27;18.07;;;;;;;38.01;43.71;101074.13;5010414;28;20461;-71
2022/05/15 06:13:10;;;;;;;25.10;19.73;;;;;;;38.04;44.03;101072.72;4993933;28;20503;-71
2022/05/15 06:15:37;;;;;;;34.73;21.40;;;;;;;37.54;44.89;101076.06;4994171;28;20469;-71
2022/05/15 06:18:05;;;;;;;34.73;20.17;;;;;;;37.72;44.59;101076.28;5010358;28;20515;-71
2022/05/15 06:20:32;;;;;;;30.57;21.30;;;;;;;37.77;44.77;101079.69;5007819;28;20429;-72
2022/05/15 06:22:58;;;;;;;23.27;18.93;;;;;;;38.02;44.07;101085.75;4995194;28;20465;-72
2022/05/15 06:25:25;;;;;;;33.43;20.23;;;;;;;37.97;44.21;101080.44;5010296;28;21003;-72
2022/05/15 06:27:52;;;;;;;33.13;20.73;;;;;;;37.79;44.73;101082.09;4992605;28;20977;-70
2022/05/15 06:30:19;;;;;;;39.07;22.40;;;;;;;37.91;43.99;101079.72;5010245;28;20422;-71
2022/05/15 06:32:45;;;;;;;31.23;20.83;;;;;;;37.93;44.06;101085.63;4993103;28;20444;-71
2022/05/15 06:35:13;;;;;;;28.13;19.27;;;;;;;37.95;44.08;101088.06;4992997;28;20469;-71
2022/05/15 06:37:40;;;;;;;35.80;23.83;;;;;;;38.04;44.25;101094.38;5009979;28;20425;-71
2022/05/15 06:40:07;;;;;;;31.13;20.30;;;;;;;38.05;44.34;101096.78;4993741;28;20433;-71
2022/05/15 06:42:34;;;;;;;33.13;20.67;;;;;;;38.08;44.39;101104.31;4993309;28;20456;-71
2022/05/15 06:45:00;;;;;;;27.77;18.93;;;;;;;38.03;44.42;101112.53;5010017;28;20991;-71
2022/05/15 06:47:26;;;;;;;26.30;19.57;;;;;;;38.17;43.68;101123.34;4993612;28;20437;-70
2022/05/15 06:49:53;;;;;;;28.40;19.67;;;;;;;38.04;43.97;101113.34;4990894;28;20528;-72
2022/05/15 06:52:19;;;;;;;27.37;21.00;;;;;;;38.05;43.84;101123.06;4995134;28;20429;-70
2022/05/15 06:54:45;;;;;;;32.77;20.17;;;;;;;38.14;43.77;101121.28;5010340;28;20417;-71
2022/05/15 06:57:29;;;;;;;26.97;17.83;;;;;;;38.20;43.93;101130.09;5009471;28;20429;-71
2022/05/15 07:00:10;;;;;;;29.90;18.30;;;;;;;38.28;43.49;101137.53;4993331;28;20428;-70
2022/05/15 07:02:37;;;;;;;29.73;20.00;;;;;;;38.39;43.31;101144.38;4992757;28;20499;-71
2022/05/15 07:05:04;;;;;;;46.40;27.63;;;;;;;38.31;43.16;101145.88;4985102;28;20414;-71
2022/05/15 07:07:31;;;;;;;40.30;25.10;;;;;;;38.04;43.62;101159.38;4994799;28;20413;-71
2022/05/15 07:09:57;;;;;;;27.77;19.30;;;;;;;37.88;44.16;101162.38;4993023;28;20465;-70
2022/05/15 07:12:24;;;;;;;35.13;21.50;;;;;;;38.08;43.89;101172.03;4994595;28;20427;-71
2022/05/15 07:14:51;;;;;;;31.60;21.63;;;;;;;38.23;43.91;101162.78;5009443;28;20483;-71
2022/05/15 07:17:17;;;;;;;41.80;23.47;;;;;;;38.41;43.29;101161.91;4993139;28;20425;-71
2022/05/15 07:19:43;;;;;;;29.23;21.80;;;;;;;38.56;42.93;101166.25;5009522;28;20988;-71
2022/05/15 07:22:12;;;;;;;26.77;20.40;;;;;;;38.54;42.93;101164.91;4993139;28;20516;-71
2022/05/15 07:24:39;;;;;;;42.13;23.87;;;;;;;38.52;43.27;101167.13;4974426;28;20434;-71
2022/05/15 07:27:07;;;;;;;38.53;24.80;;;;;;;38.45;43.02;101164.84;4994570;28;20444;-71
2022/05/15 07:29:36;;;;;;;28.60;15.17;;;;;;;38.30;43.52;101175.97;4992957;28;20952;-71
2022/05/15 07:32:06;;;;;;;34.80;16.50;;;;;;;38.16;43.72;101181.34;4993681;28;20540;-71
2022/05/15 07:34:33;;;;;;;16.67;10.60;;;;;;;38.12;43.66;101189.31;4992773;28;20444;-71
2022/05/15 07:37:00;;;;;;;14.83;11.70;;;;;;;38.12;43.92;101183.06;4979104;28;20465;-71
2022/05/15 07:39:26;;;;;;;20.83;10.23;;;;;;;38.39;42.93;101177.69;4976754;28;21194;-71
2022/05/15 07:41:52;;;;;;;22.23;12.17;;;;;;;38.57;42.79;101184.09;5009133;28;20938;-73
2022/05/15 07:44:18;;;;;;;27.33;14.93;;;;;;;38.37;43.12;101179.09;4994002;28;20536;-71
2022/05/15 07:46:45;;;;;;;25.33;16.73;;;;;;;38.60;43.23;101193.53;4960494;28;20449;-71
2022/05/15 07:49:12;;;;;;;22.50;13.77;;;;;;;38.72;42.78;101190.31;4986573;28;20432;-71
2022/05/15 07:51:44;;;;;;;19.83;11.20;;;;;;;38.78;42.66;101187.19;4992232;28;20817;-71
2022/05/15 07:54:13;;;;;;;17.80;11.10;;;;;;;38.89;42.25;101193.22;4992909;28;20468;-71
2022/05/15 07:56:39;;;;;;;9.47;6.60;;;;;;;39.04;41.50;101192.88;4976750;28;20429;-71
2022/05/15 07:59:05;;;;;;;21.60;10.93;;;;;;;39.06;41.85;101201.50;4992971;28;20436;-72
2022/05/15 08:01:31;;;;;;;20.33;10.47;;;;;;;39.02;41.66;101205.94;4993914;28;20441;-71
2022/05/15 08:03:59;;;;;;;15.40;7.90;;;;;;;38.98;41.59;101207.66;4976611;28;21248;-71
2022/05/15 08:09:15;;;;;;;12.13;7.70;;;;;;;39.25;41.45;101209.53;4981118;28;20475;-73
2022/05/15 08:11:42;;;;;;;15.77;10.63;;;;;;;39.30;41.43;101214.03;4991996;28;20593;-72
2022/05/15 08:14:10;;;;;;;14.53;9.20;;;;;;;39.31;41.37;101211.00;5008265;28;20422;-71
2022/05/15 08:16:38;;;;;;;14.70;9.50;;;;;;;39.41;40.78;101221.63;4992476;28;20437;-73
2022/05/15 08:24:35;;;;;;;16.17;8.90;;;;;;;39.26;41.32;101232.03;4993530;28;20503;-72
2022/05/15 08:27:02;;;;;;;19.17;8.63;;;;;;;39.28;41.49;101240.66;5008027;28;20430;-75
2022/05/15 08:29:28;;;;;;;13.37;8.40;;;;;;;39.38;41.23;101245.84;4992206;28;20449;-73
2022/05/15 08:31:54;;;;;;;19.67;9.17;;;;;;;39.43;41.43;101251.16;5004581;28;20551;-73
2022/05/15 08:34:21;;;;;;;11.80;7.40;;;;;;;39.44;41.12;101248.13;5007044;28;20425;-72
2022/05/15 08:36:47;;;;;;;12.90;6.83;;;;;;;39.52;41.04;101253.94;5006848;28;20842;-76
2022/05/15 08:39:14;;;;;;;17.03;7.40;;;;;;;39.56;41.03;101253.03;4989946;28;20420;-74
2022/05/15 08:42:09;;;;;;;17.17;6.73;;;;;;;39.57;40.89;101256.53;4991939;28;20504;-72
2022/05/15 08:44:42;;;;;;;11.33;7.60;;;;;;;39.62;40.29;101249.09;4982587;28;20491;-73
2022/05/15 08:47:18;;;;;;;16.20;7.90;;;;;;;39.34;41.08;101245.66;5006451;28;20421;-72
2022/05/15 08:49:50;;;;;;;16.73;7.80;;;;;;;39.31;41.13;101249.00;4991547;28;20432;-72
2022/05/15 08:52:34;;;;;;;16.03;6.30;;;;;;;39.32;40.81;101250.59;4979708;28;20441;-72
2022/05/15 08:55:19;;;;;;;11.90;7.47;;;;;;;39.30;40.74;101238.47;4985317;28;20412;-74
2022/05/15 08:58:00;;;;;;;11.03;5.23;;;;;;;39.37;40.91;101244.25;5007463;28;20424;-75
2022/05/15 09:00:50;;;;;;;8.13;4.37;;;;;;;39.22;41.17;101238.06;4992024;28;20858;-74
2022/05/15 09:03:25;;;;;;;8.40;5.70;;;;;;;39.37;40.74;101242.34;4991738;28;20484;-69
2022/05/15 09:06:03;;;;;;;10.93;6.87;;;;;;;39.42;40.68;101241.44;4989171;28;20457;-76
2022/05/15 09:08:47;;;;;;;10.97;4.90;;;;;;;39.26;40.96;101235.53;5007846;28;20433;-77
2022/05/15 09:11:24;;;;;;;13.33;6.87;;;;;;;39.40;40.75;101240.91;5007339;28;20496;-77
2022/05/15 09:14:02;;;;;;;11.10;6.60;;;;;;;39.45;40.53;101244.31;5005942;28;20441;-77
2022/05/15 09:16:31;;;;;;;10.53;5.50;;;;;;;39.47;40.55;101238.56;5005505;28;20468;-77
2022/05/15 09:19:03;;;;;;;15.17;6.87;;;;;;;39.39;40.73;101242.03;4988237;28;20445;-76
2022/05/15 09:21:29;;;;;;;12.90;4.90;;;;;;;39.38;40.52;101232.28;5005321;28;20516;-76
2022/05/15 09:24:02;;;;;;;16.30;6.43;;;;;;;39.19;41.00;101235.97;5006595;28;20496;-75
2022/05/15 09:26:40;;;;;;;12.50;5.50;;;;;;;39.26;41.20;101235.53;5006149;28;20436;-75
2022/05/15 09:29:20;;;;;;;10.63;5.57;;;;;;;39.54;40.58;101249.81;4989587;28;20508;-78
2022/05/15 09:31:47;;;;;;;12.70;6.43;;;;;;;39.45;40.41;101243.50;4986059;28;20460;-77
2022/05/15 09:34:35;;;;;;;8.77;4.93;;;;;;;39.56;40.21;101246.78;4991254;28;20417;-76
2022/05/15 09:39:50;;;;;;;9.90;5.53;;;;;;;39.70;40.23;101251.06;4988125;28;20388;-76
2022/05/15 09:45:08;;;;;;;9.40;4.50;;;;;;;39.75;40.12;101256.38;4990659;28;20812;-74
2022/05/15 09:47:38;;;;;;;10.23;4.30;;;;;;;39.72;40.29;101262.44;4991127;28;20409;-73
2022/05/15 09:50:05;;;;;;;10.77;5.90;;;;;;;39.72;40.81;101251.59;4989473;28;20430;-73
2022/05/15 09:52:31;;;;;;;11.47;5.60;;;;;;;39.78;40.76;101256.88;4989785;28;20429;-74
2022/05/15 09:55:09;;;;;;;8.20;5.30;;;;;;;39.82;40.21;101253.22;5005903;28;20421;-75
2022/05/15 09:57:35;;;;;;;10.10;4.10;;;;;;;39.82;39.77;101260.56;5004736;28;20944;-74
2022/05/15 10:00:09;;;;;;;16.10;5.00;;;;;;;39.90;40.12;101263.38;4990405;28;20420;-73
2022/05/15 10:02:44;;;;;;;12.73;7.20;;;;;;;39.82;40.18;101268.72;5005034;28;20936;-73
2022/05/15 10:05:28;;;;;;;8.63;5.07;;;;;;;39.83;39.55;101264.88;5005568;28;20417;-72
2022/05/15 10:08:11;;;;;;;9.50;5.30;;;;;;;39.69;40.09;101271.19;5005401;28;20452;-75
2022/05/15 10:10:42;;;;;;;7.70;4.50;;;;;;;39.73;40.54;101258.63;4989518;28;20474;-73
2022/05/15 10:13:16;;;;;;;11.73;5.80;;;;;;;39.79;40.25;101256.56;5003586;28;20464;-73
2022/05/15 10:15:47;;;;;;;9.40;6.20;;;;;;;39.88;40.37;101260.13;4980278;28;20492;-73
2022/05/15 10:18:24;;;;;;;9.37;5.50;;;;;;;39.88;40.08;101253.91;5005851;28;20848;-72
2022/05/15 10:20:52;;;;;;;10.73;6.47;;;;;;;39.87;40.14;101247.66;4988200;28;20865;-72
2022/05/15 10:23:26;;;;;;;16.40;6.20;;;;;;;39.92;40.52;101249.47;4989906;28;20511;-73
2022/05/15 10:25:59;;;;;;;12.90;6.17;;;;;;;39.91;40.11;101250.59;4989801;28;20417;-73
2022/05/15 10:28:47;;;;;;;13.77;5.47;;;;;;;39.95;40.27;101243.41;5005857;28;20429;-73
2022/05/15 10:31:22;;;;;;;10.73;4.40;;;;;;;40.01;39.85;101258.44;4989023;28;20584;-73
2022/05/15 10:33:53;;;;;;;10.77;4.93;;;;;;;39.97;40.35;101257.50;4987743;28;20425;-73
2022/05/15 10:36:26;;;;;;;8.87;5.63;;;;;;;39.97;39.91;101252.84;5008102;28;20502;-73
2022/05/15 10:39:13;;;;;;;18.73;5.90;;;;;;;40.00;39.98;101254.94;4993138;28;20420;-73
2022/05/15 10:42:13;;;;;;;11.70;5.57;;;;;;;40.03;40.17;101246.19;5009606;28;20406;-72
2022/05/15 10:44:57;;;;;;;13.97;5.80;;;;;;;40.05;40.39;101245.09;4985658;28;20469;-72
2022/05/15 10:47:47;;;;;;;10.00;5.13;;;;;;;40.20;39.34;101248.19;4993674;28;20520;-74
2022/05/15 10:50:28;;;;;;;9.77;6.03;;;;;;;40.10;39.25;101242.25;5007943;28;20425;-72
2022/05/15 10:59:47;;;;;;;11.60;6.10;;;;;;;40.00;40.07;101238.63;4993486;28;20469;-72
2022/05/15 11:02:43;;;;;;;18.33;6.50;;;;;;;39.99;39.68;101238.94;4951086;28;20531;-71
2022/05/15 11:05:35;;;;;;;18.43;6.47;;;;;;;40.09;39.88;101238.72;4984564;28;20532;-72
2022/05/15 11:08:33;;;;;;;11.30;5.73;;;;;;;40.18;39.75;101238.75;4994652;28;20591;-71
2022/05/15 11:11:23;;;;;;;10.00;4.70;;;;;;;40.23;39.47;101227.75;4994734;28;20965;-71
2022/05/15 11:14:22;;;;;;;11.90;5.93;;;;;;;40.19;39.54;101226.75;4993656;28;20848;-71
2022/05/15 11:17:02;;;;;;;9.40;5.23;;;;;;;40.08;39.47;101223.50;5009935;28;20495;-73
2022/05/15 11:19:32;;;;;;;8.20;5.47;;;;;;;40.04;39.92;101217.13;5009060;28;20429;-72
2022/05/15 11:22:07;;;;;;;10.20;5.50;;;;;;;40.09;39.84;101216.19;5009188;28;20434;-71
2022/05/15 11:24:52;;;;;;;12.77;5.57;;;;;;;40.06;39.80;101211.38;4991054;28;20464;-71
2022/05/15 11:27:36;;;;;;;16.40;7.03;;;;;;;40.11;40.03;101206.59;4980215;28;20965;-73
2022/05/15 11:30:10;;;;;;;11.20;6.50;;;;;;;40.10;40.09;101205.00;5008699;28;20437;-72
2022/05/15 11:32:57;;;;;;;10.03;5.73;;;;;;;40.15;40.19;101202.16;4993424;28;21001;-72
2022/05/15 11:35:28;;;;;;;11.97;6.47;;;;;;;40.08;40.05;101193.63;5009002;28;20463;-71
2022/05/15 11:37:57;;;;;;;21.23;6.23;;;;;;;40.25;39.48;101199.13;4990443;28;20433;-71
2022/05/15 11:40:34;;;;;;;9.80;7.13;;;;;;;40.27;39.98;101198.84;5008958;28;20945;-72
2022/05/15 11:43:26;;;;;;;20.13;7.40;;;;;;;40.31;39.89;101199.78;5005879;28;20852;-74
2022/05/15 11:45:54;;;;;;;10.90;6.47;;;;;;;40.38;39.71;101200.13;4989354;28;20461;-72
2022/05/15 11:48:27;;;;;;;10.00;6.00;;;;;;;40.23;39.66;101187.78;5008525;28;20422;-72
2022/05/15 11:51:01;;;;;;;8.60;5.30;;;;;;;40.18;39.78;101187.13;4997671;28;20456;-72
2022/05/15 11:53:39;;;;;;;10.93;6.53;;;;;;;40.16;39.69;101173.06;5008321;28;20892;-72